Time;durP1;ratioP1;P1;durP2;ratioP2;P2;SDS_P1;SDS_P2;PMS_P1;PMS_P2;Temp;Humidity;BMP_temperature;BMP_pressure;BME280_temperature;BME280_humidity;BME280_pressure;Samples;Min_cycle;Max_cycle;Signal;HPM_P1;HPM_P2
2021/03/28 00:01:16;;;;;;;9.27;2.38;;;7.40;50.90;;;5.74;52.41;97246.19;5033403;28;20030;-73
2021/03/28 00:03:41;;;;;;;6.85;2.35;;;7.40;50.80;;;5.76;50.88;97239.03;5041802;28;20033;-73
2021/03/28 00:06:25;;;;;;;6.13;1.98;;;7.50;51.00;;;5.77;52.20;97240.69;5039046;28;20051;-73
2021/03/28 00:09:19;;;;;;;6.80;2.25;;;7.50;51.80;;;5.78;53.77;97244.94;5036041;28;20072;-73
2021/03/28 00:12:18;;;;;;;9.23;2.40;;;7.50;51.90;;;5.78;52.94;97253.59;5016454;28;20483;-73
2021/03/28 00:15:08;;;;;;;7.68;2.53;;;7.50;51.70;;;5.72;53.42;97248.91;5045252;28;20400;-73
2021/03/28 00:18:05;;;;;;;4.72;2.40;;;7.30;52.40;;;5.71;53.31;97251.66;5035695;28;20040;-73
2021/03/28 00:20:37;;;;;;;4.43;2.10;;;7.40;52.50;;;5.70;53.61;97244.78;5015242;28;20536;-73
2021/03/28 00:23:25;;;;;;;7.40;2.50;;;7.40;52.80;;;5.73;53.84;97249.75;4989560;28;20098;-73
2021/03/28 00:26:15;;;;;;;6.22;2.33;;;7.40;53.00;;;5.73;54.24;97249.75;5022840;28;20056;-73
2021/03/28 00:28:44;;;;;;;4.77;2.13;;;7.50;53.20;;;5.76;52.77;97244.25;5002824;28;20097;-74
2021/03/28 00:31:28;;;;;;;5.65;2.22;;;7.60;53.70;;;5.79;54.65;97252.66;5010043;28;20295;-73
2021/03/28 00:34:26;;;;;;;5.20;2.00;;;7.60;53.70;;;5.81;54.79;97252.50;5043158;28;20048;-73
2021/03/28 00:37:07;;;;;;;5.97;2.15;;;7.60;53.80;;;5.78;54.88;97248.38;5023964;28;20042;-74
2021/03/28 00:40:08;;;;;;;7.53;2.30;;;7.50;53.90;;;5.77;54.86;97246.72;5045812;28;20041;-73
2021/03/28 00:42:45;;;;;;;4.60;2.10;;;7.40;54.40;;;5.77;54.98;97241.50;5042409;28;20079;-74
2021/03/28 00:45:36;;;;;;;3.83;2.00;;;7.50;54.50;;;5.80;55.25;97245.63;5013398;28;20036;-73
2021/03/28 00:48:22;;;;;;;6.47;2.00;;;7.60;54.90;;;5.80;55.88;97251.69;5008566;28;20029;-73
2021/03/28 00:51:12;;;;;;;4.85;1.73;;;7.60;54.90;;;5.83;55.99;97245.38;5023465;28;20033;-73
2021/03/28 00:53:54;;;;;;;4.32;1.80;;;7.60;54.60;;;5.82;54.71;97248.94;5044556;28;20067;-73
2021/03/28 00:56:39;;;;;;;3.03;1.90;;;7.50;54.20;;;5.81;55.82;97242.06;5045132;28;20040;-73
2021/03/28 00:59:17;;;;;;;8.18;2.42;;;7.60;54.60;;;5.81;55.62;97242.91;5022836;28;20151;-73
2021/03/28 01:02:06;;;;;;;7.72;2.25;;;7.60;54.90;;;5.83;56.35;97248.00;5022604;28;20042;-73
2021/03/28 01:05:07;;;;;;;5.60;2.05;;;7.60;54.80;;;5.85;55.73;97253.91;5021996;28;20037;-73
2021/03/28 01:07:32;;;;;;;6.33;2.57;;;7.60;54.60;;;5.83;54.58;97246.19;5041336;28;20478;-73
2021/03/28 01:10:16;;;;;;;5.95;2.25;;;7.60;54.80;;;5.85;55.74;97244.28;5042238;28;20045;-73
2021/03/28 01:12:42;;;;;;;5.75;2.30;;;7.60;54.90;;;5.84;54.13;97239.19;5042895;28;20043;-73
2021/03/28 01:15:42;;;;;;;6.82;2.30;;;7.60;55.30;;;5.86;56.60;97237.28;5042917;28;20112;-72
2021/03/28 01:18:36;;;;;;;5.75;2.28;;;7.60;55.80;;;5.85;55.97;97233.00;5029147;28;20513;-73
2021/03/28 01:21:16;;;;;;;3.63;2.17;;;7.60;55.60;;;5.77;55.72;97235.47;5023128;28;20084;-72
2021/03/28 01:23:43;;;;;;;7.13;2.50;;;7.30;55.80;;;5.75;54.74;97232.16;4993959;28;20445;-72
2021/03/28 01:26:23;;;;;;;4.93;2.63;;;7.40;56.00;;;5.74;56.13;97231.34;5011229;28;20141;-71
2021/03/28 01:29:28;;;;;;;4.32;2.47;;;7.40;56.10;;;5.75;56.82;97229.56;5024694;28;20571;-71
2021/03/28 01:32:16;;;;;;;5.43;2.42;;;7.50;56.00;;;5.76;57.23;97226.81;5012453;28;20040;-71
2021/03/28 01:34:49;;;;;;;8.20;2.42;;;7.50;56.10;;;5.77;55.76;97225.03;5026022;28;20049;-71
2021/03/28 01:37:24;;;;;;;7.57;2.95;;;7.60;55.90;;;5.73;56.26;97218.41;5040034;28;20035;-72
2021/03/28 01:40:15;;;;;;;6.55;2.92;;;7.40;56.00;;;5.70;57.25;97221.28;5027345;28;20037;-71
2021/03/28 01:43:12;;;;;;;7.18;3.03;;;7.40;56.10;;;5.68;56.93;97223.22;5013547;28;20029;-71
2021/03/28 01:46:05;;;;;;;9.43;3.33;;;7.40;56.40;;;5.66;56.97;97219.88;5044124;28;21573;-72
2021/03/28 01:49:08;;;;;;;8.02;2.65;;;7.30;56.50;;;5.62;58.19;97215.88;5039294;28;20039;-72
2021/03/28 01:52:04;;;;;;;8.10;3.15;;;7.30;56.90;;;5.62;58.10;97215.88;5026560;28;20034;-72
2021/03/28 01:55:04;;;;;;;7.10;2.97;;;7.40;57.30;;;5.61;57.84;97222.88;5021427;28;20034;-71
2021/03/28 01:57:57;;;;;;;8.13;2.92;;;7.30;57.00;;;5.53;57.83;97218.31;5031057;28;20106;-72
2021/03/28 02:01:03;;;;;;;7.93;2.75;;;7.10;57.50;;;5.48;57.81;97215.28;5037247;28;20370;-71
2021/03/28 02:03:53;;;;;;;7.78;2.97;;;7.10;57.90;;;5.45;58.10;97219.94;5030031;28;20037;-71
2021/03/28 02:06:33;;;;;;;5.65;2.83;;;7.10;58.00;;;5.42;58.50;97214.94;5033168;28;20849;-71
2021/03/28 02:09:08;;;;;;;5.78;2.38;;;7.10;58.30;;;5.40;57.73;97217.69;5043311;28;20064;-71
2021/03/28 02:12:12;;;;;;;5.00;2.55;;;7.00;58.30;;;5.39;59.06;97205.59;5020599;28;20033;-72
2021/03/28 02:14:58;;;;;;;5.35;2.10;;;7.10;58.20;;;5.37;58.25;97211.91;5040944;28;20041;-71
2021/03/28 02:17:51;;;;;;;7.57;2.50;;;7.00;58.30;;;5.36;58.49;97216.31;5043082;28;20385;-71
2021/03/28 02:20:23;;;;;;;6.13;2.67;;;7.00;58.40;;;5.34;58.49;97213.00;5023811;28;20106;-73
2021/03/28 02:23:11;;;;;;;6.60;2.65;;;7.10;58.30;;;5.34;57.93;97214.78;5057471;28;20113;-72
2021/03/28 02:26:00;;;;;;;4.82;2.53;;;7.00;58.30;;;5.32;59.67;97214.91;5038671;28;20871;-72
2021/03/28 02:29:10;;;;;;;5.13;2.35;;;7.10;58.60;;;5.31;59.74;97215.03;5028018;28;20037;-72
2021/03/28 02:32:04;;;;;;;5.82;2.70;;;7.10;59.10;;;5.28;59.45;97213.53;5028198;28;20025;-72
2021/03/28 02:34:33;;;;;;;5.10;2.28;;;7.10;58.60;;;5.31;58.40;97217.66;5034900;28;20038;-72
2021/03/28 02:37:12;;;;;;;5.45;2.40;;;7.10;58.50;;;5.31;58.66;97221.09;5019123;28;20436;-72
2021/03/28 02:39:48;;;;;;;7.82;2.45;;;7.10;58.30;;;5.33;58.21;97226.19;5028534;28;20041;-73
2021/03/28 02:42:30;;;;;;;4.50;2.22;;;7.10;57.80;;;5.32;58.09;97214.91;5024188;28;20052;-72
2021/03/28 02:45:21;;;;;;;4.82;2.20;;;7.10;57.70;;;5.32;59.29;97214.91;5038870;28;20072;-72
2021/03/28 02:48:19;;;;;;;5.00;2.22;;;7.10;57.70;;;5.29;59.01;97209.13;5012480;28;20044;-72
2021/03/28 02:51:05;;;;;;;7.47;2.60;;;7.10;58.10;;;5.32;59.10;97214.91;5026722;28;20041;-72
2021/03/28 02:54:19;;;;;;;3.92;2.03;;;7.10;58.20;;;5.33;59.73;97224.41;5035001;28;20036;-72
2021/03/28 02:57:08;;;;;;;3.33;1.85;;;7.10;58.70;;;5.31;59.21;97218.47;5029750;28;20079;-73
2021/03/28 02:59:59;;;;;;;7.72;1.80;;;7.10;58.60;;;5.31;59.86;97218.47;5024304;28;20033;-73
2021/03/28 03:02:49;;;;;;;6.32;2.40;;;7.10;58.60;;;5.33;59.68;97216.56;5034356;28;20036;-73
2021/03/28 03:05:45;;;;;;;5.88;2.30;;;7.10;59.10;;;5.33;59.91;97221.78;5037571;28;20496;-72
2021/03/28 03:08:30;;;;;;;5.40;2.38;;;7.10;59.30;;;5.30;58.24;97216.81;5039940;28;20038;-72
2021/03/28 03:11:38;;;;;;;7.30;2.33;;;7.10;59.20;;;5.30;59.92;97221.22;5033342;28;20030;-72
2021/03/28 03:15:01;;;;;;;6.93;2.40;;;7.10;59.00;;;5.28;60.77;97225.75;5040713;28;20052;-72
2021/03/28 03:18:13;;;;;;;5.40;2.17;;;7.10;59.20;;;5.26;60.32;97227.66;5030643;28;20120;-72
2021/03/28 03:21:15;;;;;;;5.53;2.00;;;7.00;59.80;;;5.20;60.34;97221.16;5042217;28;20041;-72
2021/03/28 03:24:21;;;;;;;7.93;2.85;;;7.00;59.60;;;5.19;60.74;97229.94;5039448;28;20034;-72
2021/03/28 03:27:39;;;;;;;8.73;3.15;;;7.00;60.00;;;5.15;60.70;97224.13;5033721;28;20076;-72
2021/03/28 03:30:32;;;;;;;5.10;2.40;;;7.00;60.10;;;5.09;61.16;97223.84;5036253;28;20098;-73
2021/03/28 03:33:34;;;;;;;6.90;2.78;;;7.00;60.10;;;5.12;61.11;97229.63;5012351;28;20042;-72
2021/03/28 03:36:31;;;;;;;5.80;2.60;;;7.00;60.20;;;5.06;60.99;97219.69;5033688;28;20076;-72
2021/03/28 03:39:06;;;;;;;5.82;2.63;;;6.90;60.40;;;5.09;60.97;97216.00;5033747;28;20033;-72
2021/03/28 03:41:38;;;;;;;6.65;2.50;;;6.90;60.80;;;5.08;61.14;97224.78;5041789;28;20041;-72
2021/03/28 03:44:37;;;;;;;6.97;2.53;;;6.90;60.50;;;5.06;61.52;97229.31;5036410;28;20059;-72
2021/03/28 03:47:21;;;;;;;7.57;2.47;;;6.90;60.80;;;5.04;61.58;97226.84;5041416;28;20127;-72
2021/03/28 03:50:13;;;;;;;10.77;3.50;;;6.90;60.90;;;5.06;62.08;97237.13;4992176;28;20528;-72
2021/03/28 03:52:48;;;;;;;5.68;3.28;;;6.90;61.10;;;5.04;61.54;97236.44;5010020;28;20048;-72
2021/03/28 03:55:36;;;;;;;9.73;3.22;;;6.90;61.00;;;5.03;61.17;97234.78;5038313;28;20048;-72
2021/03/28 03:58:23;;;;;;;6.55;3.10;;;6.80;61.00;;;5.02;61.69;97235.75;5043895;28;20112;-72
2021/03/28 04:00:57;;;;;;;6.20;2.90;;;6.80;61.30;;;5.00;59.88;97232.44;5024301;28;20755;-71
2021/03/28 04:03:44;;;;;;;9.55;3.03;;;6.80;61.00;;;4.99;62.12;97236.81;5040677;28;20059;-72
2021/03/28 04:07:19;;;;;;;5.35;2.60;;;6.80;61.30;;;4.94;62.22;97241.56;5031269;28;20033;-72
2021/03/28 04:10:19;;;;;;;6.63;2.95;;;6.70;61.60;;;4.90;61.96;97240.16;5027317;28;20068;-72
2021/03/28 04:12:56;;;;;;;4.85;2.67;;;6.70;61.60;;;4.89;62.39;97239.34;5018320;28;20037;-71
2021/03/28 04:15:30;;;;;;;6.75;2.50;;;6.70;61.80;;;4.89;61.94;97243.72;5034505;28;20519;-72
2021/03/28 04:18:12;;;;;;;5.68;2.90;;;6.70;61.70;;;4.87;62.02;97235.19;5037362;28;20064;-73
2021/03/28 04:21:33;;;;;;;6.82;2.40;;;6.60;61.90;;;4.84;63.03;97231.06;5042619;28;20037;-72
2021/03/28 04:24:14;;;;;;;7.32;2.60;;;6.60;62.40;;;4.82;62.93;97237.38;5029790;28;20040;-72
2021/03/28 04:27:08;;;;;;;8.85;2.88;;;6.60;62.50;;;4.79;63.21;97238.44;5014027;28;20095;-73
2021/03/28 04:29:33;;;;;;;9.77;2.75;;;6.60;63.00;;;4.76;61.18;97238.69;5009282;28;20041;-72
2021/03/28 04:32:50;;;;;;;5.95;2.65;;;6.60;62.60;;;4.77;63.83;97244.75;5005542;28;20394;-72
2021/03/28 04:35:37;;;;;;;4.13;2.10;;;6.60;62.40;;;4.73;63.23;97244.13;4979313;28;20068;-72
2021/03/28 04:38:36;;;;;;;9.23;2.83;;;6.60;62.60;;;4.72;63.09;97245.09;5014102;28;20044;-69
2021/03/28 04:41:50;;;;;;;9.55;2.67;;;6.60;62.60;;;4.72;63.09;97255.50;5040089;28;20068;-70
2021/03/28 04:44:45;;;;;;;5.05;2.50;;;6.60;62.20;;;4.70;63.22;97251.38;5039085;28;20132;-69
2021/03/28 04:47:16;;;;;;;5.82;1.90;;;6.50;62.90;;;4.67;62.34;97251.63;5021485;28;20025;-68
2021/03/28 04:50:42;;;;;;;5.38;2.42;;;6.40;62.60;;;4.65;63.34;97258.75;5039756;28;20386;-68
2021/03/28 04:53:40;;;;;;;4.38;2.13;;;6.50;62.70;;;4.60;63.10;97265.16;4987565;28;20118;-67
2021/03/28 04:56:37;;;;;;;5.05;2.63;;;6.50;62.20;;;4.58;63.56;97282.69;5019944;28;20053;-67
2021/03/28 04:59:39;;;;;;;3.97;2.20;;;6.40;62.60;;;4.54;63.17;97277.88;5029635;28;20045;-67
2021/03/28 05:02:26;;;;;;;4.80;2.10;;;6.30;62.90;;;4.50;62.10;97273.81;5042684;28;20457;-67
2021/03/28 05:05:35;;;;;;;7.20;2.35;;;6.40;62.90;;;4.47;63.07;97284.50;5042358;28;20045;-67
2021/03/28 05:08:16;;;;;;;8.90;2.67;;;6.20;62.30;;;4.42;62.48;97292.69;5041169;28;20033;-67
2021/03/28 05:11:14;;;;;;;4.28;2.35;;;6.10;62.40;;;4.36;63.15;97292.34;5042471;28;20112;-73
2021/03/28 05:14:19;;;;;;;7.20;2.22;;;6.00;63.00;;;4.34;63.10;97302.06;5039034;28;20464;-73
2021/03/28 05:17:19;;;;;;;6.05;2.35;;;6.10;62.80;;;4.35;63.18;97296.72;5042055;28;20045;-72
2021/03/28 05:20:15;;;;;;;7.28;2.40;;;6.10;62.40;;;4.36;63.00;97297.56;5029712;28;20034;-72
2021/03/28 05:23:22;;;;;;;5.45;1.77;;;6.10;62.10;;;4.37;61.54;97302.66;5011350;28;20037;-72
2021/03/28 05:26:48;;;;;;;5.60;1.55;;;6.10;60.40;;;4.41;62.30;97314.47;5029443;28;20107;-72
2021/03/28 05:30:05;;;;;;;4.90;2.00;;;6.20;60.90;;;4.43;61.75;97309.13;5023747;28;20120;-73
2021/03/28 05:33:11;;;;;;;5.97;2.20;;;6.30;60.90;;;4.45;61.93;97312.44;4999835;28;20106;-73
2021/03/28 05:35:56;;;;;;;5.97;1.90;;;6.30;60.80;;;4.44;62.16;97311.63;5032711;28;20043;-72
2021/03/28 05:38:52;;;;;;;4.97;1.92;;;6.30;61.00;;;4.49;62.30;97304.25;5016858;28;20037;-73
2021/03/28 05:41:30;;;;;;;6.82;2.25;;;6.40;61.10;;;4.54;61.92;97314.34;5047067;28;20030;-72
2021/03/28 05:44:23;;;;;;;5.70;1.70;;;6.50;60.90;;;4.59;61.82;97322.63;5027847;28;20124;-71
2021/03/28 05:47:31;;;;;;;4.18;1.70;;;6.50;60.00;;;4.64;61.68;97323.06;5028966;28;20064;-72
2021/03/28 05:50:20;;;;;;;6.50;1.88;;;6.60;60.00;;;4.69;62.06;97325.31;5024785;28;20052;-71
2021/03/28 05:53:15;;;;;;;5.25;2.10;;;6.60;59.80;;;4.75;61.51;97327.41;5027486;28;20041;-72
2021/03/28 05:56:27;;;;;;;6.90;1.85;;;6.70;59.40;;;4.81;61.17;97327.78;5014759;28;20620;-72
2021/03/28 05:59:17;;;;;;;6.32;2.15;;;6.70;59.00;;;4.89;60.95;97322.75;5031712;28;20547;-72
2021/03/28 06:02:31;;;;;;;4.75;1.63;;;6.90;58.40;;;4.99;60.97;97325.47;5043901;28;20053;-72
2021/03/28 06:05:25;;;;;;;7.30;2.08;;;7.00;58.20;;;5.09;60.66;97328.16;5030509;28;20047;-71
2021/03/28 06:08:38;;;;;;;3.53;1.80;;;7.10;57.90;;;5.17;60.54;97334.38;5032371;28;20534;-69
2021/03/28 06:11:28;;;;;;;5.70;1.95;;;7.20;58.00;;;5.26;60.62;97337.22;5047462;28;20441;-69
2021/03/28 06:14:31;;;;;;;5.35;2.17;;;7.30;57.60;;;5.37;59.89;97343.19;5046927;28;20528;-67
2021/03/28 06:17:07;;;;;;;7.47;2.35;;;7.50;57.00;;;5.45;60.38;97343.41;5045072;28;20106;-66
2021/03/28 06:20:16;;;;;;;7.55;2.00;;;7.50;57.10;;;5.50;59.78;97343.03;5017214;28;20071;-68
2021/03/28 06:23:20;;;;;;;6.30;1.63;;;7.50;57.10;;;5.55;59.46;97351.28;5043910;28;20044;-68
2021/03/28 06:26:33;;;;;;;21.52;12.25;;;7.40;57.10;;;5.63;59.04;97359.31;5000824;28;20041;-67
2021/03/28 06:29:29;;;;;;;5.63;2.13;;;7.60;56.60;;;5.71;59.34;97358.69;5036823;28;20045;-66
2021/03/28 06:32:47;;;;;;;9.40;5.32;;;7.80;56.10;;;5.81;58.56;97367.41;5022861;28;20436;-67
2021/03/28 06:36:02;;;;;;;4.82;2.00;;;7.90;55.10;;;5.90;58.35;97365.84;5024989;28;20075;-66
2021/03/28 06:38:49;;;;;;;4.85;1.75;;;8.10;55.00;;;5.96;58.18;97375.78;5033970;28;20392;-70
2021/03/28 06:41:24;;;;;;;5.75;1.98;;;8.10;54.60;;;6.01;58.32;97379.66;5046149;28;20427;-71
2021/03/28 06:44:10;;;;;;;5.18;1.70;;;8.10;54.60;;;6.07;58.67;97376.50;5026353;28;20439;-67
2021/03/28 06:47:46;;;;;;;4.65;1.63;;;8.20;54.40;;;6.20;57.40;97385.94;5032412;28;20422;-66
2021/03/28 06:51:03;;;;;;;4.68;1.52;;;8.30;53.80;;;6.35;57.62;97388.09;5001772;28;20068;-68
2021/03/28 06:54:16;;;;;;;3.60;1.63;;;8.60;53.00;;;6.50;57.55;97391.16;5027580;28;20029;-67
2021/03/28 06:57:25;;;;;;;4.65;1.52;;;8.70;52.90;;;6.61;56.98;97391.06;5045134;28;20515;-67
2021/03/28 07:00:41;;;;;;;5.25;1.92;;;8.60;52.70;;;6.73;56.79;97395.22;5046645;28;20115;-67
2021/03/28 07:04:15;;;;;;;5.72;1.83;;;8.80;52.60;;;6.89;57.20;97386.06;4989280;28;20037;-68
2021/03/28 07:07:10;;;;;;;3.50;1.52;;;9.10;52.40;;;7.00;56.47;97397.22;5022189;28;20048;-67
2021/03/28 07:10:13;;;;;;;9.00;1.70;;;9.20;51.40;;;7.26;55.44;97388.88;5025151;28;20050;-67
2021/03/28 07:13:08;;;;;;;5.35;1.55;;;10.20;49.30;;;7.65;55.30;97384.44;5026442;28;20053;-68
2021/03/28 07:16:05;;;;;;;9.93;5.30;;;11.00;46.70;;;8.04;54.82;97379.16;5033635;28;20042;-67
2021/03/28 07:18:47;;;;;;;4.45;1.90;;;11.70;45.30;;;8.50;53.66;97380.97;5031657;28;20040;-68
2021/03/28 07:21:59;;;;;;;6.10;2.03;;;12.40;43.00;;;9.04;52.99;97387.16;5029510;28;20033;-69
2021/03/28 07:25:17;;;;;;;6.13;2.55;;;13.10;41.60;;;9.62;51.12;97373.63;5038865;28;20021;-74
2021/03/28 07:28:04;;;;;;;4.35;1.70;;;13.70;40.20;;;10.11;51.46;97377.44;5038913;28;20512;-74
2021/03/28 07:31:07;;;;;;;4.90;1.40;;;14.30;38.80;;;10.67;48.31;97376.16;5042712;28;20132;-75
2021/03/28 07:34:29;;;;;;;8.30;1.73;;;15.20;36.40;;;11.25;47.37;97384.03;5025629;28;20033;-74
2021/03/28 07:37:27;;;;;;;3.90;1.73;;;15.60;35.20;;;11.91;46.57;97382.31;5040644;28;20038;-75
2021/03/28 07:40:27;;;;;;;7.78;2.65;;;16.90;33.90;;;12.61;45.98;97379.06;5025931;28;20550;-75
2021/03/28 07:43:30;;;;;;;8.00;1.95;;;18.00;32.30;;;13.28;44.41;97377.63;5025603;28;20065;-74
2021/03/28 07:46:43;;;;;;;4.38;1.55;;;18.70;30.50;;;13.88;42.22;97374.22;5028925;28;20041;-75
2021/03/28 07:49:36;;;;;;;7.22;1.55;;;18.40;30.50;;;14.22;40.92;97375.56;5038421;28;20140;-75
2021/03/28 07:52:31;;;;;;;6.80;2.03;;;18.40;30.30;;;14.57;40.04;97371.44;5019931;28;20099;-75
2021/03/28 07:55:19;;;;;;;5.72;1.55;;;19.10;29.50;;;14.84;39.74;97365.47;5029564;28;20032;-73
2021/03/28 07:58:26;;;;;;;4.45;1.20;;;18.80;29.50;;;15.14;40.29;97366.22;5028437;28;20041;-74
2021/03/28 08:01:17;;;;;;;7.47;1.67;;;19.00;29.10;;;15.23;39.58;97365.13;5003647;28;20033;-68
2021/03/28 08:03:46;;;;;;;4.03;1.80;;;18.90;29.20;;;15.35;41.39;97367.28;5045263;28;20044;-68
2021/03/28 08:06:42;;;;;;;9.38;2.50;;;19.10;28.80;;;15.41;37.08;97369.19;5028336;28;20045;-68
2021/03/28 08:09:41;;;;;;;6.05;1.67;;;19.00;28.50;;;15.63;38.04;97360.28;5033525;28;20056;-68
2021/03/28 08:12:29;;;;;;;8.63;1.92;;;20.00;27.50;;;16.01;37.12;97367.94;5043458;28;20051;-69
2021/03/28 08:15:12;;;;;;;5.05;1.60;;;21.00;26.50;;;16.41;37.33;97359.25;5029623;28;20437;-67
2021/03/28 08:18:11;;;;;;;7.35;1.90;;;21.50;26.30;;;16.94;36.04;97367.53;5028347;28;20119;-68
2021/03/28 08:21:21;;;;;;;8.70;1.95;;;21.80;25.50;;;17.27;34.78;97369.50;5030378;28;20041;-69
2021/03/28 08:24:22;;;;;;;7.30;2.17;;;21.30;24.90;;;17.49;34.95;97372.84;4973337;28;20038;-68
2021/03/28 08:27:26;;;;;;;14.63;8.13;;;21.80;25.10;;;17.82;33.58;97371.06;5023357;28;20636;-66
2021/03/28 08:29:57;;;;;;;6.95;1.98;;;22.30;24.40;;;18.00;34.69;97365.16;5025174;28;20416;-69
2021/03/28 08:33:15;;;;;;;6.47;1.63;;;22.50;24.60;;;18.13;32.51;97365.16;5027027;28;20034;-67
2021/03/28 08:36:03;;;;;;;7.50;2.15;;;22.40;23.90;;;18.19;32.64;97374.97;5029623;28;20054;-67
2021/03/28 08:39:04;;;;;;;6.68;2.00;;;22.30;24.40;;;18.24;33.41;97377.84;5025396;28;20053;-66
2021/03/28 08:42:09;;;;;;;6.35;1.88;;;22.40;24.70;;;18.26;32.46;97377.63;5025718;28;20063;-67
2021/03/28 08:45:06;;;;;;;5.47;1.80;;;22.10;24.50;;;18.20;32.71;97368.63;5029965;28;20039;-67
2021/03/28 08:48:07;;;;;;;5.03;1.73;;;21.60;25.00;;;18.06;32.34;97369.63;5028684;28;20037;-69
2021/03/28 08:50:55;;;;;;;8.50;3.35;;;21.30;24.90;;;17.90;32.94;97365.56;5021104;28;20453;-67
2021/03/28 08:53:42;;;;;;;7.45;2.72;;;20.70;25.10;;;17.73;32.57;97364.31;5009926;28;20054;-67
2021/03/28 08:56:56;;;;;;;6.05;2.50;;;20.80;25.70;;;17.65;32.06;97367.97;5032432;28;20041;-68
2021/03/28 09:00:00;;;;;;;5.85;1.98;;;20.70;25.40;;;17.57;31.86;97360.16;5048049;28;20588;-68
2021/03/28 09:02:54;;;;;;;6.93;1.95;;;20.40;25.60;;;17.54;32.48;97357.09;5033919;28;20061;-68
2021/03/28 09:05:41;;;;;;;5.45;1.70;;;20.20;25.00;;;17.53;31.80;97366.91;5040791;28;20033;-66
2021/03/28 09:08:23;;;;;;;3.85;1.83;;;20.70;25.40;;;17.59;32.35;97365.28;5012495;28;20041;-72
2021/03/28 09:11:32;;;;;;;6.35;1.60;;;20.80;25.20;;;17.82;31.58;97370.25;5046207;28;20029;-69
2021/03/28 09:14:22;;;;;;;4.85;2.00;;;21.50;24.40;;;18.00;30.47;97365.97;5045350;28;20186;-71
2021/03/28 09:17:18;;;;;;;7.93;2.40;;;20.80;24.00;;;18.24;30.48;97367.19;5028752;28;20037;-71
2021/03/28 09:20:14;;;;;;;8.25;1.90;;;21.50;24.10;;;18.39;30.51;97364.31;5042010;28;20124;-71
2021/03/28 09:23:11;;;;;;;5.47;1.75;;;21.30;24.10;;;18.40;30.02;97365.94;5044453;28;20052;-72
2021/03/28 09:26:03;;;;;;;6.07;1.80;;;20.70;24.00;;;18.53;29.36;97371.22;5041983;28;20090;-73
2021/03/28 09:28:51;;;;;;;8.75;2.00;;;21.10;24.00;;;18.59;29.40;97372.28;5039328;28;20060;-73
2021/03/28 09:31:34;;;;;;;5.38;1.55;;;21.20;24.40;;;18.74;30.39;97370.19;5032302;28;20067;-72
2021/03/28 09:34:24;;;;;;;6.18;1.90;;;21.50;23.90;;;18.64;29.46;97378.63;5031548;28;20445;-74
2021/03/28 09:37:03;;;;;;;6.20;2.10;;;20.90;24.00;;;18.72;29.28;97363.44;5042962;28;20033;-72
2021/03/28 09:40:15;;;;;;;6.20;2.38;;;20.80;24.50;;;18.88;28.93;97350.47;5017895;28;20029;-74
2021/03/28 09:43:01;;;;;;;5.43;1.48;;;21.20;24.00;;;19.05;27.59;97352.69;5041283;28;20029;-66
2021/03/28 09:46:06;;;;;;;5.82;2.20;;;21.10;22.30;;;19.11;28.07;97347.31;5026438;28;20523;-65
2021/03/28 09:49:17;;;;;;;6.13;1.67;;;21.20;23.00;;;19.32;26.46;97348.84;5028776;28;20129;-66
2021/03/28 09:52:26;;;;;;;4.45;1.42;;;21.10;22.50;;;19.43;26.56;97350.81;5036969;28;20485;-66
2021/03/28 09:55:17;;;;;;;6.05;2.55;;;20.60;22.00;;;19.57;26.36;97355.09;5040734;28;20096;-66
2021/03/28 09:57:55;;;;;;;6.05;1.95;;;21.10;22.90;;;19.79;27.54;97349.41;5038852;28;20075;-74
2021/03/28 10:00:58;;;;;;;3.55;1.15;;;21.60;22.90;;;20.22;26.52;97351.31;5030486;28;20038;-73
2021/03/28 10:03:49;;;;;;;5.53;1.58;;;22.30;22.40;;;20.38;25.86;97348.91;5006406;28;20506;-74
2021/03/28 10:06:20;;;;;;;4.90;1.55;;;22.50;21.30;;;20.27;27.05;97348.81;5035524;28;20060;-74
2021/03/28 10:08:50;;;;;;;7.50;1.38;;;21.90;22.10;;;20.49;27.05;97342.03;5010903;28;20401;-74
2021/03/28 10:11:28;;;;;;;7.72;1.50;;;22.60;21.70;;;20.78;25.16;97327.13;5020153;28;20110;-70
2021/03/28 10:14:25;;;;;;;5.47;1.65;;;22.90;21.70;;;21.23;25.48;97329.44;5037838;28;20033;-73
2021/03/28 10:17:40;;;;;;;4.88;1.42;;;23.20;19.80;;;21.73;25.05;97327.34;5040322;28;20182;-73
2021/03/28 10:20:25;;;;;;;5.38;1.40;;;23.40;19.90;;;22.34;24.98;97328.00;5036378;28;20051;-73
2021/03/28 10:23:27;;;;;;;4.25;1.75;;;24.00;20.30;;;22.97;23.59;97329.91;5031887;28;20029;-75
2021/03/28 10:26:39;;;;;;;3.80;1.20;;;24.20;19.30;;;23.60;23.34;97334.38;5032637;28;20025;-69
2021/03/28 10:29:51;;;;;;;6.32;1.70;;;24.80;20.10;;;24.50;22.19;97323.50;5035976;28;20041;-74
2021/03/28 10:32:39;;;;;;;4.20;1.40;;;26.00;18.30;;;25.36;22.26;97322.97;5036891;28;20565;-74
2021/03/28 10:35:25;;;;;;;4.07;1.33;;;27.30;17.70;;;26.12;21.02;97313.72;5021098;28;20045;-70
2021/03/28 10:38:09;;;;;;;4.82;1.55;;;28.20;16.30;;;26.88;20.71;97299.06;5047697;28;20048;-67
2021/03/28 10:41:36;;;;;;;4.30;1.30;;;28.50;16.50;;;27.58;19.91;97316.59;5043180;28;20033;-67
2021/03/28 10:44:45;;;;;;;4.07;1.30;;;28.80;16.10;;;28.14;20.21;97312.06;5033682;28;20044;-73
2021/03/28 10:47:51;;;;;;;5.43;1.67;;;29.20;15.60;;;28.36;20.06;97317.22;5036111;28;20134;-73
2021/03/28 10:50:46;;;;;;;4.82;1.45;;;29.10;15.80;;;28.56;19.62;97303.63;5046901;28;20044;-73
2021/03/28 10:54:08;;;;;;;4.25;1.45;;;29.00;15.90;;;28.59;18.25;97316.63;5002258;28;20437;-72
2021/03/28 10:57:13;;;;;;;4.70;1.30;;;29.00;16.10;;;28.62;18.61;97310.66;5025317;28;20064;-72
2021/03/28 10:59:53;;;;;;;3.80;1.30;;;29.00;15.40;;;28.57;19.45;97305.25;5026585;28;20115;-69
2021/03/28 11:03:02;;;;;;;4.53;1.70;;;28.90;16.10;;;28.96;18.19;97307.31;5026706;28;20037;-69
2021/03/28 11:05:50;;;;;;;7.20;1.58;;;29.80;15.40;;;28.96;18.68;97296.47;5030499;28;20048;-67
2021/03/28 11:08:48;;;;;;;6.72;1.30;;;29.40;15.70;;;29.14;18.25;97308.59;5029071;28;20048;-68
2021/03/28 11:11:53;;;;;;;3.22;1.33;;;29.30;15.60;;;29.32;17.68;97299.00;5035262;28;20049;-69
2021/03/28 11:14:34;;;;;;;4.15;1.38;;;29.00;16.00;;;29.25;17.74;97299.31;5037307;28;20039;-70
2021/03/28 11:17:33;;;;;;;3.47;1.20;;;28.60;16.10;;;29.53;16.73;97295.13;5040734;28;20041;-72
2021/03/28 11:20:29;;;;;;;3.50;1.50;;;29.00;15.40;;;29.68;17.50;97292.31;5015263;28;20045;-74
2021/03/28 11:23:17;;;;;;;3.83;1.20;;;29.40;15.40;;;29.65;17.20;97284.75;5026308;28;20041;-70
2021/03/28 11:26:18;;;;;;;4.00;1.40;;;28.60;15.50;;;29.65;17.23;97294.75;5036047;28;20511;-71
2021/03/28 11:28:51;;;;;;;4.80;1.88;;;29.20;15.40;;;29.65;17.42;97290.16;5046088;28;20539;-71
2021/03/28 11:31:26;;;;;;;4.57;1.70;;;29.00;15.70;;;29.63;16.53;97288.81;5046665;28;20033;-71
2021/03/28 11:34:21;;;;;;;3.58;1.30;;;28.90;15.50;;;29.86;16.60;97286.19;5046221;28;20040;-72
2021/03/28 11:36:58;;;;;;;6.38;1.52;;;29.80;14.90;;;29.95;16.74;97274.72;5046765;28;20040;-70
2021/03/28 11:39:29;;;;;;;4.43;2.60;;;30.30;15.30;;;30.10;17.45;97264.59;5031165;28;20544;-70
2021/03/28 11:42:13;;;;;;;10.80;7.65;;;29.80;15.20;;;30.21;16.60;97257.16;5026342;28;20034;-70
2021/03/28 11:44:58;;;;;;;6.03;3.70;;;30.10;15.30;;;30.46;16.61;97262.31;5026215;28;20060;-70
2021/03/28 11:47:35;;;;;;;4.55;1.38;;;30.70;15.30;;;30.28;17.78;97263.03;5030681;28;20067;-70
2021/03/28 11:50:15;;;;;;;4.63;1.80;;;29.90;15.60;;;30.29;15.73;97264.66;5041139;28;20033;-71
2021/03/28 11:52:54;;;;;;;3.75;1.42;;;30.10;15.10;;;30.10;16.57;97261.03;5027399;28;20597;-71
2021/03/28 11:55:28;;;;;;;3.97;1.30;;;29.80;15.10;;;30.05;16.49;97261.09;5011244;28;20355;-71
2021/03/28 11:58:12;;;;;;;5.05;1.95;;;30.00;15.10;;;30.03;16.37;97252.41;5027735;28;20406;-71
2021/03/28 12:00:57;;;;;;;4.57;1.75;;;30.30;14.80;;;30.06;16.31;97251.84;5028019;28;20033;-71
2021/03/28 12:03:40;;;;;;;3.95;1.30;;;30.20;14.80;;;29.85;16.31;97249.28;5011512;28;20394;-71
2021/03/28 12:06:18;;;;;;;4.30;1.50;;;30.60;14.30;;;29.72;16.49;97255.38;5010114;28;20594;-71
2021/03/28 12:08:46;;;;;;;4.53;1.45;;;30.60;14.70;;;29.78;16.30;97248.81;5033494;28;20041;-71
2021/03/28 12:11:44;;;;;;;2.47;1.20;;;30.60;14.40;;;29.78;16.52;97254.25;5047102;28;20037;-71
2021/03/28 12:14:12;;;;;;;4.47;1.60;;;31.00;14.50;;;29.81;16.74;97250.97;5017192;28;20500;-71
2021/03/28 12:17:06;;;;;;;3.67;1.10;;;31.00;14.70;;;29.73;16.80;97250.78;5047681;28;20037;-71
2021/03/28 12:19:41;;;;;;;4.95;2.17;;;31.00;14.70;;;29.56;16.94;97256.59;5027661;28;20408;-72